Time;durP1;ratioP1;P1;durP2;ratioP2;P2;SDS_P1;SDS_P2;PMS_P1;PMS_P2;Temp;Humidity;BMP_temperature;BMP_pressure;BME280_temperature;BME280_humidity;BME280_pressure;Samples;Min_cycle;Max_cycle;Signal;HPM_P1;HPM_P2
2021/11/23 00:00:15;;;;;;;16.75;10.98;;;3.20;99.90;;;;;;5017093;28;20124;-74
2021/11/23 00:02:41;;;;;;;16.95;11.70;;;3.20;99.90;;;;;;5016138;28;20397;-74
2021/11/23 00:05:09;;;;;;;18.92;11.30;;;3.10;99.90;;;;;;5016397;28;20042;-74
2021/11/23 00:07:35;;;;;;;15.25;10.95;;;3.20;99.90;;;;;;5016608;28;20042;-74
2021/11/23 00:10:01;;;;;;;24.85;15.20;;;3.10;99.90;;;;;;5016300;28;20064;-74
2021/11/23 00:12:27;;;;;;;19.70;10.88;;;3.10;99.90;;;;;;5016184;28;20091;-74
2021/11/23 00:14:53;;;;;;;15.32;8.98;;;3.10;99.90;;;;;;5016048;28;20578;-74
2021/11/23 00:17:19;;;;;;;17.77;10.40;;;3.10;99.90;;;;;;5016033;28;20038;-74
2021/11/23 00:19:45;;;;;;;15.88;10.60;;;3.00;99.90;;;;;;5016321;28;20062;-74
2021/11/23 00:22:10;;;;;;;15.27;10.55;;;2.90;99.90;;;;;;5015984;28;20478;-74
2021/11/23 00:24:37;;;;;;;20.48;12.07;;;2.90;99.90;;;;;;5015003;28;20144;-74
2021/11/23 00:27:04;;;;;;;22.02;12.93;;;2.90;99.90;;;;;;5016225;28;20363;-74
2021/11/23 00:29:31;;;;;;;16.38;11.45;;;2.90;99.90;;;;;;5016109;28;20034;-74
2021/11/23 00:31:57;;;;;;;19.80;12.80;;;2.90;99.90;;;;;;5015519;28;20095;-74
2021/11/23 00:34:23;;;;;;;16.63;11.77;;;2.90;99.90;;;;;;5015831;28;20137;-74
2021/11/23 00:36:49;;;;;;;18.13;10.98;;;2.90;99.90;;;;;;5016125;28;20078;-74
2021/11/23 00:39:15;;;;;;;19.15;11.70;;;2.80;99.90;;;;;;5016100;28;20042;-74
2021/11/23 00:41:47;;;;;;;18.67;12.55;;;2.80;99.90;;;;;;5016318;28;20048;-74
2021/11/23 00:44:14;;;;;;;18.70;12.18;;;2.70;99.90;;;;;;5015642;28;20046;-74
2021/11/23 00:46:40;;;;;;;17.52;11.93;;;2.70;99.90;;;;;;5016052;28;20508;-74
2021/11/23 00:49:06;;;;;;;16.42;11.00;;;2.70;99.90;;;;;;5015620;28;20042;-74
2021/11/23 00:51:32;;;;;;;17.05;11.18;;;2.70;99.90;;;;;;5015316;28;20511;-74
2021/11/23 00:53:57;;;;;;;17.83;11.32;;;2.70;99.90;;;;;;5015552;28;20117;-74
2021/11/23 00:56:23;;;;;;;15.48;10.82;;;2.80;99.90;;;;;;5015917;28;20129;-74
2021/11/23 00:58:49;;;;;;;16.92;11.10;;;2.80;99.90;;;;;;5015566;28;20393;-74
2021/11/23 01:01:15;;;;;;;18.02;10.55;;;2.70;99.90;;;;;;5015182;28;20041;-74
2021/11/23 01:03:41;;;;;;;20.35;12.75;;;2.70;99.90;;;;;;5015154;28;20519;-74
2021/11/23 01:06:07;;;;;;;18.65;10.15;;;2.70;99.90;;;;;;5015386;28;20072;-74
2021/11/23 01:08:38;;;;;;;13.65;9.50;;;2.80;99.90;;;;;;5015691;28;20354;-74
2021/11/23 01:11:04;;;;;;;17.58;9.98;;;3.00;99.90;;;;;;5014777;28;20093;-74
2021/11/23 01:13:29;;;;;;;15.80;10.48;;;3.30;99.90;;;;;;5014997;28;20038;-74
2021/11/23 01:15:55;;;;;;;16.08;10.85;;;3.30;97.20;;;;;;5015235;28;20061;-74
2021/11/23 01:18:21;;;;;;;14.35;9.35;;;3.30;99.90;;;;;;5015282;28;20033;-74
2021/11/23 01:20:47;;;;;;;12.30;8.82;;;3.50;99.10;;;;;;5015178;28;20038;-74
2021/11/23 01:23:13;;;;;;;15.27;9.57;;;3.50;94.50;;;;;;5014986;28;20046;-74
2021/11/23 01:25:38;;;;;;;13.18;9.38;;;3.60;91.60;;;;;;5014604;28;20128;-74
2021/11/23 01:28:04;;;;;;;12.82;8.55;;;3.60;97.20;;;;;;5015170;28;20056;-74
2021/11/23 01:30:30;;;;;;;13.25;9.23;;;3.70;99.90;;;;;;5014939;28;20034;-74
2021/11/23 01:32:56;;;;;;;15.20;9.35;;;3.90;91.90;;;;;;5014622;28;20042;-74
2021/11/23 01:35:22;;;;;;;14.65;8.93;;;3.90;86.20;;;;;;5014435;28;20381;-74
2021/11/23 01:37:48;;;;;;;16.80;10.55;;;3.80;91.70;;;;;;5014732;28;20424;-74
2021/11/23 01:40:17;;;;;;;15.30;9.95;;;3.90;71.80;;;;;;5014902;28;20037;-74
2021/11/23 01:42:44;;;;;;;16.08;10.73;;;4.00;73.80;;;;;;5015186;28;20045;-74
2021/11/23 01:45:10;;;;;;;15.30;9.20;;;4.00;64.30;;;;;;5014541;28;20080;-74
2021/11/23 01:47:37;;;;;;;14.77;9.68;;;3.90;77.10;;;;;;5014598;28;20540;-74
2021/11/23 01:50:05;;;;;;;17.52;10.60;;;3.90;86.10;;;;;;5014113;28;20428;-74
2021/11/23 01:52:31;;;;;;;16.88;10.35;;;4.10;59.90;;;;;;5014267;28;20461;-74
2021/11/23 01:54:57;;;;;;;14.15;9.75;;;4.00;64.70;;;;;;5014403;28;20120;-74
2021/11/23 01:57:23;;;;;;;17.38;10.27;;;3.90;81.60;;;;;;5014252;28;20046;-74
2021/11/23 01:59:49;;;;;;;14.27;10.10;;;4.00;82.60;;;;;;5014857;28;20091;-74
2021/11/23 02:02:16;;;;;;;20.02;11.18;;;4.10;85.00;;;;;;5014333;28;20527;-74
2021/11/23 02:04:42;;;;;;;17.13;11.07;;;4.20;71.00;;;;;;5014411;28;20052;-74
2021/11/23 02:07:08;;;;;;;17.75;10.00;;;4.20;68.70;;;;;;5014385;28;20481;-74
2021/11/23 02:09:34;;;;;;;19.45;11.68;;;4.10;90.90;;;;;;5014122;28;20034;-74
2021/11/23 02:12:01;;;;;;;19.63;12.10;;;4.10;86.10;;;;;;5014121;28;20497;-74
2021/11/23 02:14:28;;;;;;;13.80;10.82;;;4.10;89.70;;;;;;5014822;28;20072;-74
2021/11/23 02:16:55;;;;;;;15.48;10.23;;;4.10;69.10;;;;;;5014267;28;20116;-74
2021/11/23 02:19:22;;;;;;;17.20;10.32;;;4.10;57.40;;;;;;5014707;28;20034;-74
2021/11/23 02:21:48;;;;;;;15.82;10.35;;;4.10;66.40;;;;;;5014340;28;20100;-74
2021/11/23 02:24:14;;;;;;;18.25;9.65;;;4.00;82.30;;;;;;5014411;28;20580;-74
2021/11/23 02:26:39;;;;;;;15.73;10.05;;;3.90;91.60;;;;;;5014250;28;20164;-74
2021/11/23 02:29:05;;;;;;;17.33;11.25;;;3.90;95.20;;;;;;5014702;28;20045;-74
2021/11/23 02:31:31;;;;;;;21.45;11.13;;;4.00;99.90;;;;;;5013988;28;20121;-74
2021/11/23 02:33:57;;;;;;;24.65;11.45;;;4.10;99.90;;;;;;5014153;28;20552;-74
2021/11/23 02:36:23;;;;;;;21.42;12.10;;;4.00;99.90;;;;;;5014198;28;20128;-74
2021/11/23 02:38:50;;;;;;;21.95;11.80;;;3.90;99.90;;;;;;5014650;28;20041;-74
2021/11/23 02:41:16;;;;;;;21.60;11.93;;;3.80;99.90;;;;;;5014098;28;20085;-74
2021/11/23 02:43:43;;;;;;;28.88;11.68;;;4.10;99.90;;;;;;5013679;28;20052;-74
2021/11/23 02:46:09;;;;;;;18.05;11.38;;;4.10;99.90;;;;;;5013800;28;20136;-74
2021/11/23 02:48:36;;;;;;;18.10;11.15;;;4.00;99.90;;;;;;5016815;28;20041;-74
2021/11/23 02:51:15;;;;;;;16.65;10.82;;;4.10;99.90;;;;;;5017293;28;20124;-74
2021/11/23 02:53:46;;;;;;;16.95;9.90;;;4.20;99.90;;;;;;5016912;28;20100;-74
2021/11/23 02:56:13;;;;;;;16.50;10.45;;;4.30;95.20;;;;;;5017519;28;20036;-74
2021/11/23 02:58:40;;;;;;;25.88;12.80;;;4.20;99.90;;;;;;5017443;28;20042;-74
2021/11/23 03:01:08;;;;;;;14.98;10.65;;;4.30;99.90;;;;;;5016979;28;20030;-74
2021/11/23 03:03:33;;;;;;;18.92;10.85;;;4.20;99.90;;;;;;5017013;28;20072;-74
2021/11/23 03:06:00;;;;;;;16.83;10.45;;;4.20;99.90;;;;;;5016980;28;20489;-74
2021/11/23 03:08:26;;;;;;;19.30;10.32;;;4.20;99.90;;;;;;5017378;28;20152;-74
2021/11/23 03:10:52;;;;;;;16.05;9.88;;;4.10;99.90;;;;;;5017172;28;20575;-74
2021/11/23 03:13:18;;;;;;;14.80;9.60;;;4.10;99.40;;;;;;5017691;28;20133;-74
2021/11/23 03:15:44;;;;;;;13.43;8.68;;;4.00;99.90;;;;;;5017101;28;20125;-74
2021/11/23 03:18:10;;;;;;;13.27;9.25;;;4.10;97.70;;;;;;5017048;28;20049;-74
2021/11/23 03:20:36;;;;;;;14.70;10.07;;;4.00;99.90;;;;;;5017060;28;20180;-74
2021/11/23 03:23:03;;;;;;;15.55;10.50;;;4.00;92.30;;;;;;5017388;28;20058;-74
2021/11/23 03:25:29;;;;;;;15.70;10.23;;;3.90;99.90;;;;;;5017130;28;20038;-74
2021/11/23 03:27:56;;;;;;;14.75;10.50;;;3.90;96.90;;;;;;5016892;28;20080;-74
2021/11/23 03:30:25;;;;;;;15.85;10.02;;;3.80;99.90;;;;;;5016914;28;20034;-74
2021/11/23 03:32:54;;;;;;;15.27;9.77;;;3.80;99.90;;;;;;5016515;28;20037;-74
2021/11/23 03:35:21;;;;;;;16.10;9.68;;;3.80;99.90;;;;;;5016804;28;20038;-74
2021/11/23 03:37:48;;;;;;;18.98;10.20;;;3.70;99.90;;;;;;5016960;28;20045;-73
2021/11/23 03:40:14;;;;;;;16.88;10.15;;;3.80;99.90;;;;;;5017128;28;20053;-74
2021/11/23 03:42:40;;;;;;;13.75;9.38;;;4.00;99.90;;;;;;5016813;28;20120;-74
2021/11/23 03:45:07;;;;;;;14.50;8.80;;;4.20;98.30;;;;;;5016759;28;20044;-74
2021/11/23 03:47:34;;;;;;;14.82;8.23;;;4.20;94.80;;;;;;5016537;28;20049;-74
2021/11/23 03:50:00;;;;;;;10.93;8.05;;;4.00;95.60;;;;;;5017050;28;20149;-74
2021/11/23 03:52:26;;;;;;;11.63;7.65;;;4.00;93.90;;;;;;5016332;28;20481;-74
2021/11/23 03:54:53;;;;;;;14.23;8.00;;;4.10;98.60;;;;;;5016359;28;20046;-74
2021/11/23 03:57:20;;;;;;;12.02;7.60;;;3.90;99.40;;;;;;5016543;28;20034;-74
2021/11/23 03:59:47;;;;;;;13.90;7.95;;;3.90;99.90;;;;;;5016326;28;20149;-74
2021/11/23 04:02:18;;;;;;;12.95;8.60;;;3.90;99.90;;;;;;5016044;28;20073;-74
2021/11/23 04:04:45;;;;;;;13.05;8.55;;;4.10;99.90;;;;;;5016579;28;20080;-74
2021/11/23 04:07:11;;;;;;;14.05;9.40;;;4.10;97.20;;;;;;5016430;28;20129;-74
2021/11/23 04:09:37;;;;;;;24.67;9.27;;;4.20;90.20;;;;;;5016826;28;20117;-74
2021/11/23 04:12:03;;;;;;;37.03;8.85;;;4.10;76.50;;;;;;5016260;28;20508;-74
2021/11/23 04:14:29;;;;;;;16.27;8.30;;;3.80;94.20;;;;;;5016343;28;20092;-74
2021/11/23 04:16:54;;;;;;;13.35;8.10;;;3.60;99.90;;;;;;5015775;28;20046;-74
2021/11/23 04:19:20;;;;;;;24.17;7.97;;;3.70;99.90;;;;;;5016169;28;20041;-74
2021/11/23 04:21:46;;;;;;;24.23;8.68;;;3.60;99.90;;;;;;5016174;28;20041;-74
2021/11/23 04:24:12;;;;;;;41.55;8.80;;;3.40;99.90;;;;;;5015767;28;20046;-74
2021/11/23 04:26:38;;;;;;;47.55;9.50;;;3.30;99.90;;;;;;5015518;28;20103;-74
2021/11/23 04:29:04;;;;;;;15.15;8.05;;;3.30;99.90;;;;;;5015479;28;20520;-74
2021/11/23 04:31:29;;;;;;;16.30;8.45;;;3.30;99.90;;;;;;5015537;28;20041;-74
2021/11/23 04:33:56;;;;;;;12.10;8.05;;;3.30;99.90;;;;;;5015530;28;20037;-74
2021/11/23 04:36:21;;;;;;;17.63;8.15;;;3.30;99.90;;;;;;5015353;28;20061;-74
2021/11/23 04:38:47;;;;;;;13.05;8.45;;;3.40;99.90;;;;;;5015253;28;20503;-74
2021/11/23 04:41:13;;;;;;;13.48;8.43;;;3.40;99.90;;;;;;5015552;28;20038;-74
2021/11/23 04:43:39;;;;;;;12.48;8.60;;;3.60;99.90;;;;;;5015956;28;20042;-74
2021/11/23 04:46:05;;;;;;;25.02;8.25;;;3.60;99.90;;;;;;5015175;28;20049;-74
2021/11/23 04:48:31;;;;;;;15.48;8.63;;;3.60;99.90;;;;;;5015401;28;20053;-74
2021/11/23 04:50:56;;;;;;;17.73;8.40;;;3.60;99.90;;;;;;5015366;28;20516;-74
2021/11/23 04:53:23;;;;;;;13.73;8.68;;;3.50;99.90;;;;;;5015053;28;20041;-73
2021/11/23 04:55:51;;;;;;;11.73;7.95;;;3.50;99.90;;;;;;5015248;28;20038;-74
2021/11/23 04:58:17;;;;;;;11.27;7.85;;;3.60;99.90;;;;;;5015397;28;20128;-74
2021/11/23 05:00:42;;;;;;;21.00;8.30;;;3.40;99.90;;;;;;5014929;28;20045;-74
2021/11/23 05:03:08;;;;;;;16.15;8.38;;;3.60;99.90;;;;;;5013620;28;20042;-74
2021/11/23 05:05:34;;;;;;;17.60;8.40;;;3.70;99.90;;;;;;5014634;28;20172;-74
2021/11/23 05:08:00;;;;;;;16.30;8.27;;;3.70;93.60;;;;;;5014965;28;20046;-74
2021/11/23 05:10:26;;;;;;;28.13;9.25;;;3.60;99.90;;;;;;4995197;28;20625;-74
2021/11/23 05:12:53;;;;;;;20.88;8.63;;;3.60;99.90;;;;;;4996209;28;20030;-74
2021/11/23 05:15:19;;;;;;;12.27;7.63;;;3.70;99.90;;;;;;4996101;28;20387;-73
2021/11/23 05:17:45;;;;;;;17.92;8.82;;;3.60;99.90;;;;;;5014454;28;20041;-73
2021/11/23 05:20:12;;;;;;;11.23;7.70;;;3.50;99.90;;;;;;5013928;28;20042;-74
2021/11/23 05:22:38;;;;;;;11.05;7.47;;;3.50;99.90;;;;;;5014631;28;20058;-74
2021/11/23 05:25:05;;;;;;;10.38;6.82;;;3.50;96.50;;;;;;5014519;28;20109;-74
2021/11/23 05:27:32;;;;;;;11.52;6.43;;;3.20;86.50;;;;;;5008037;28;20042;-74
2021/11/23 05:29:59;;;;;;;11.88;7.03;;;3.00;99.90;;;;;;4995466;28;20034;-74
2021/11/23 05:32:26;;;;;;;11.88;7.50;;;3.30;99.90;;;;;;4995058;28;20049;-73
2021/11/23 05:34:51;;;;;;;11.18;6.72;;;3.50;94.40;;;;;;4997698;28;20073;-76
2021/11/23 05:37:18;;;;;;;9.10;6.47;;;3.70;66.40;;;;;;5006781;28;20061;-71
2021/11/23 05:39:43;;;;;;;10.80;7.45;;;3.40;82.80;;;;;;5013005;28;20046;-71
2021/11/23 05:42:09;;;;;;;12.95;6.90;;;3.50;78.60;;;;;;5012928;28;20088;-71
2021/11/23 05:44:35;;;;;;;16.98;8.13;;;3.50;82.90;;;;;;5013811;28;20038;-71
2021/11/23 05:47:02;;;;;;;19.58;9.18;;;3.50;91.60;;;;;;5013764;28;20074;-71
2021/11/23 05:49:28;;;;;;;13.77;7.82;;;3.40;99.90;;;;;;5013689;28;20041;-71
2021/11/23 05:51:58;;;;;;;20.65;8.40;;;3.30;99.90;;;;;;5012834;28;20049;-71
2021/11/23 05:54:24;;;;;;;18.50;7.28;;;3.20;96.10;;;;;;5009696;28;20046;-71
2021/11/23 05:56:50;;;;;;;12.63;7.72;;;3.20;98.30;;;;;;4991385;28;20513;-72
2021/11/23 05:59:17;;;;;;;11.10;7.40;;;3.10;99.90;;;;;;4991364;28;20042;-72
2021/11/23 06:01:44;;;;;;;10.65;7.28;;;3.20;99.10;;;;;;4992771;28;20069;-71
2021/11/23 06:04:10;;;;;;;17.48;8.07;;;3.10;97.60;;;;;;4993893;28;20045;-72
2021/11/23 06:06:36;;;;;;;17.55;8.77;;;3.20;97.70;;;;;;4994574;28;20042;-71
2021/11/23 06:09:05;;;;;;;14.07;7.85;;;3.30;93.70;;;;;;4994525;28;20061;-71
2021/11/23 06:11:31;;;;;;;9.77;7.82;;;3.50;78.30;;;;;;4994486;28;20034;-71
2021/11/23 06:13:57;;;;;;;10.77;7.50;;;3.50;62.80;;;;;;4994737;28;20561;-71
2021/11/23 06:16:22;;;;;;;12.98;8.82;;;3.40;86.60;;;;;;4994483;28;20050;-71
2021/11/23 06:18:48;;;;;;;14.98;9.05;;;3.30;90.20;;;;;;4994384;28;20038;-72
2021/11/23 06:21:14;;;;;;;14.30;8.93;;;3.40;98.20;;;;;;4994480;28;20088;-71
2021/11/23 06:23:40;;;;;;;14.63;10.13;;;3.50;73.60;;;;;;4998267;28;20065;-72
2021/11/23 06:26:07;;;;;;;14.43;9.45;;;3.50;63.20;;;;;;4998347;28;20048;-71
2021/11/23 06:28:34;;;;;;;9.50;6.18;;;3.40;84.10;;;;;;4999250;28;20046;-72
2021/11/23 06:31:00;;;;;;;8.88;5.95;;;3.30;64.80;;;;;;4998399;28;20039;-72
2021/11/23 06:33:26;;;;;;;13.32;7.40;;;3.30;80.70;;;;;;4998218;28;20566;-72
2021/11/23 06:35:52;;;;;;;9.75;7.07;;;3.40;80.50;;;;;;4998500;28;20042;-71
2021/11/23 06:38:18;;;;;;;10.25;6.78;;;3.40;59.20;;;;;;4998729;28;20100;-71
2021/11/23 06:40:45;;;;;;;8.95;5.97;;;3.40;67.90;;;;;;4998079;28;20034;-73
2021/11/23 06:43:11;;;;;;;11.07;7.20;;;3.30;79.40;;;;;;4998112;28;20124;-71
2021/11/23 06:45:38;;;;;;;10.70;7.50;;;3.30;85.20;;;;;;4997726;28;20493;-71
2021/11/23 06:48:07;;;;;;;9.50;6.95;;;3.40;66.40;;;;;;4998006;28;20050;-71
2021/11/23 06:50:32;;;;;;;12.60;7.57;;;3.40;77.70;;;;;;4998052;28;20081;-71
2021/11/23 06:53:03;;;;;;;11.75;8.13;;;3.60;66.50;;;;;;4998508;28;20485;-71
2021/11/23 06:55:29;;;;;;;;;;;3.60;68.10;;;;;;4998728;28;20065;-71
2021/11/23 06:57:55;;;;;;;12.27;9.02;;;3.90;51.60;;;;;;4998182;28;19917;-71
2021/11/23 07:00:21;;;;;;;12.15;8.15;;;3.80;51.70;;;;;;4998111;28;20073;-71
2021/11/23 07:02:47;;;;;;;11.30;8.27;;;3.80;59.10;;;;;;4997881;28;20130;-71
2021/11/23 07:05:13;;;;;;;11.75;7.60;;;3.80;53.30;;;;;;4997985;28;20098;-71
2021/11/23 07:07:39;;;;;;;10.50;7.68;;;3.80;53.50;;;;;;4998490;28;20035;-71
2021/11/23 07:10:13;;;;;;;8.35;6.78;;;3.90;50.10;;;;;;4998073;28;20069;-71
2021/11/23 07:12:39;;;;;;;10.38;7.55;;;3.80;41.90;;;;;;4997624;28;20045;-71
2021/11/23 07:15:07;;;;;;;10.43;7.95;;;3.90;42.90;;;;;;4997496;28;20046;-71
2021/11/23 07:17:33;;;;;;;10.45;7.80;;;3.90;51.20;;;;;;4997721;28;20042;-71
2021/11/23 07:19:58;;;;;;;10.75;6.70;;;3.90;59.10;;;;;;4998001;28;20054;-71
2021/11/23 07:22:25;;;;;;;9.20;6.47;;;4.00;52.40;;;;;;4997375;28;20086;-71
2021/11/23 07:24:51;;;;;;;10.40;6.95;;;4.00;51.80;;;;;;4997275;28;20089;-71
2021/11/23 07:27:17;;;;;;;8.98;6.90;;;4.00;46.70;;;;;;4997598;28;20042;-71
2021/11/23 07:29:43;;;;;;;7.95;6.35;;;4.00;57.50;;;;;;4997467;28;20074;-71
2021/11/23 07:32:11;;;;;;;7.25;5.88;;;4.00;69.40;;;;;;4996966;28;20132;-71
2021/11/23 07:34:37;;;;;;;8.05;6.10;;;4.00;58.10;;;;;;4996763;28;20074;-71
2021/11/23 07:37:03;;;;;;;8.05;5.93;;;4.00;55.10;;;;;;4997376;28;20058;-71
2021/11/23 07:39:29;;;;;;;6.18;4.90;;;4.00;51.40;;;;;;4996735;28;20403;-71
2021/11/23 07:41:55;;;;;;;6.35;4.97;;;4.00;64.30;;;;;;4997027;28;20109;-71
2021/11/23 07:44:21;;;;;;;5.60;4.53;;;4.00;60.60;;;;;;4996879;28;20054;-71
2021/11/23 07:46:48;;;;;;;7.55;5.03;;;4.00;57.90;;;;;;4996298;28;20075;-71
2021/11/23 07:49:14;;;;;;;7.60;5.20;;;4.10;59.90;;;;;;4996856;28;20066;-71
2021/11/23 07:51:40;;;;;;;8.75;5.15;;;4.20;59.40;;;;;;4997143;28;20042;-71
2021/11/23 07:54:06;;;;;;;7.05;5.53;;;4.20;45.10;;;;;;4996944;28;20042;-71
2021/11/23 07:56:32;;;;;;;7.43;5.57;;;4.20;41.20;;;;;;4996494;28;20406;-71
2021/11/23 07:58:59;;;;;;;9.38;5.80;;;4.20;41.30;;;;;;4997160;28;20096;-71
2021/11/23 08:01:25;;;;;;;8.85;5.53;;;4.20;42.90;;;;;;4996638;28;20073;-71
2021/11/23 08:03:50;;;;;;;8.40;5.63;;;4.40;48.20;;;;;;4996077;28;20494;-71
2021/11/23 08:06:18;;;;;;;9.65;5.95;;;4.60;26.40;;;;;;4996308;28;20046;-71
2021/11/23 08:08:45;;;;;;;7.13;5.32;;;4.70;28.50;;;;;;4996193;28;20520;-71
2021/11/23 08:11:11;;;;;;;9.60;6.70;;;4.90;12.10;;;;;;4996769;28;20442;-71
2021/11/23 08:13:37;;;;;;;11.55;5.88;;;5.00;15.30;;;;;;4996109;28;20390;-71
2021/11/23 08:16:04;;;;;;;9.20;6.57;;;5.10;8.80;;;;;;4996092;28;20037;-71
2021/11/23 08:18:34;;;;;;;10.15;6.65;;;5.30;3.90;;;;;;4996316;28;20030;-71
2021/11/23 08:21:01;;;;;;;12.98;7.50;;;5.40;6.70;;;;;;4996558;28;20042;-71
2021/11/23 08:23:26;;;;;;;11.02;7.05;;;5.50;4.90;;;;;;4996411;28;20163;-71
2021/11/23 08:25:54;;;;;;;11.27;7.55;;;5.50;4.30;;;;;;4996223;28;20505;-71
2021/11/23 08:28:26;;;;;;;11.27;7.95;;;5.40;10.60;;;;;;4996229;28;20042;-71
2021/11/23 08:30:56;;;;;;;11.25;8.23;;;5.50;12.70;;;;;;4996114;28;20034;-71
2021/11/23 08:33:22;;;;;;;11.30;8.03;;;5.60;5.50;;;;;;4996512;28;20046;-71
2021/11/23 08:35:48;;;;;;;11.65;8.23;;;5.50;9.20;;;;;;4996055;28;20053;-71
2021/11/23 08:38:14;;;;;;;12.40;8.45;;;5.60;7.20;;;;;;4996877;28;20066;-71
2021/11/23 08:40:41;;;;;;;12.35;9.30;;;5.60;9.30;;;;;;4996234;28;20042;-71
2021/11/23 08:43:08;;;;;;;17.30;10.55;;;5.60;6.80;;;;;;4996668;28;20481;-71
2021/11/23 08:45:34;;;;;;;19.90;11.43;;;5.60;11.10;;;;;;4995095;28;20064;-71
2021/11/23 08:48:01;;;;;;;16.55;10.70;;;5.60;13.30;;;;;;4995930;28;20117;-71
2021/11/23 08:50:28;;;;;;;15.25;10.45;;;5.70;19.30;;;;;;4996066;28;20068;-71
2021/11/23 08:52:57;;;;;;;13.30;9.13;;;5.70;12.90;;;;;;4996004;28;20074;-71
2021/11/23 08:55:26;;;;;;;12.82;9.65;;;5.80;16.10;;;;;;4995977;28;20060;-71
2021/11/23 08:57:52;;;;;;;13.55;9.15;;;5.80;12.80;;;;;;4995970;28;20042;-71
2021/11/23 09:00:20;;;;;;;14.25;9.20;;;5.90;7.10;;;;;;4995858;28;20038;-71
2021/11/23 09:02:49;;;;;;;14.15;9.43;;;6.00;6.20;;;;;;4995628;28;20088;-71
2021/11/23 09:05:16;;;;;;;13.15;9.13;;;6.00;4.10;;;;;;4995361;28;20046;-71
2021/11/23 09:07:43;;;;;;;16.48;10.70;;;6.00;12.30;;;;;;4995714;28;20034;-71
2021/11/23 09:10:17;;;;;;;17.92;11.63;;;6.30;1.10;;;;;;4995898;28;20050;-71
2021/11/23 09:12:42;;;;;;;16.33;10.45;;;6.30;4.00;;;;;;4995771;28;20117;-71
2021/11/23 09:15:09;;;;;;;18.25;11.27;;;6.30;1.00;;;;;;4995474;28;20073;-71
2021/11/23 09:17:35;;;;;;;19.38;11.52;;;6.30;9.70;;;;;;4995520;28;20037;-71
2021/11/23 09:20:01;;;;;;;20.25;12.13;;;6.40;10.80;;;;;;4995482;28;20042;-71
2021/11/23 09:22:28;;;;;;;19.00;11.07;;;6.60;10.80;;;;;;4995221;28;20066;-71
2021/11/23 09:24:54;;;;;;;19.70;11.60;;;6.60;9.00;;;;;;4994794;28;20038;-71
2021/11/23 09:27:20;;;;;;;20.25;11.57;;;6.60;11.90;;;;;;4994970;28;20042;-71
2021/11/23 09:29:46;;;;;;;22.35;11.73;;;6.50;14.50;;;;;;4994632;28;20034;-71
2021/11/23 09:32:13;;;;;;;14.40;9.95;;;6.40;24.80;;;;;;4994731;28;20085;-71
2021/11/23 09:34:39;;;;;;;17.42;9.60;;;6.40;32.60;;;;;;4995117;28;20038;-71
2021/11/23 09:37:05;;;;;;;15.88;10.07;;;6.50;32.70;;;;;;4994755;28;20039;-71
2021/11/23 09:39:31;;;;;;;14.32;9.85;;;6.50;32.10;;;;;;4995341;28;20042;-71
2021/11/23 09:41:57;;;;;;;17.80;10.15;;;6.50;42.80;;;;;;4995248;28;20038;-71
2021/11/23 09:44:23;;;;;;;14.00;9.98;;;6.40;50.40;;;;;;4994673;28;20133;-71
2021/11/23 09:46:49;;;;;;;17.00;8.85;;;6.40;67.50;;;;;;4994867;28;20049;-71
2021/11/23 09:49:15;;;;;;;14.93;10.77;;;6.30;62.10;;;;;;4995467;28;20113;-71
2021/11/23 09:51:41;;;;;;;20.00;11.18;;;6.30;93.10;;;;;;4995237;28;20049;-71
2021/11/23 09:54:10;;;;;;;20.75;12.70;;;6.40;99.90;;;;;;4994694;28;20038;-71
2021/11/23 09:56:37;;;;;;;19.92;12.82;;;6.50;99.90;;;;;;4996820;28;20553;-71
2021/11/23 09:59:04;;;;;;;23.30;12.27;;;6.60;99.90;;;;;;4999141;28;20047;-71
2021/11/23 10:01:44;;;;;;;19.33;12.43;;;6.60;99.90;;;;;;4998720;28;20035;-71
2021/11/23 10:04:10;;;;;;;23.90;13.30;;;6.60;99.90;;;;;;4999272;28;20041;-71
2021/11/23 10:06:36;;;;;;;21.05;13.23;;;6.70;99.90;;;;;;5013900;28;20039;-71
2021/11/23 10:09:01;;;;;;;18.65;11.85;;;6.70;99.90;;;;;;4999230;28;20113;-71
2021/11/23 10:11:32;;;;;;;17.50;12.60;;;6.70;99.90;;;;;;4999006;28;20096;-71
2021/11/23 10:14:01;;;;;;;21.45;12.43;;;6.80;99.90;;;;;;4998711;28;20038;-71
2021/11/23 10:16:45;;;;;;;19.02;10.65;;;6.70;99.90;;;;;;4998820;28;20038;-71
2021/11/23 10:19:14;;;;;;;14.20;10.07;;;6.70;99.90;;;;;;4998818;28;20049;-71
2021/11/23 10:21:56;;;;;;;16.63;9.00;;;6.70;99.90;;;;;;4998291;28;20047;-71
2021/11/23 10:24:22;;;;;;;19.33;12.40;;;6.60;99.90;;;;;;4998397;28;20042;-71
2021/11/23 10:26:49;;;;;;;21.17;12.15;;;6.60;99.90;;;;;;4998458;28;20104;-71
2021/11/23 10:29:16;;;;;;;17.77;12.00;;;6.50;99.90;;;;;;4998126;28;20493;-71
2021/11/23 10:31:45;;;;;;;17.83;11.93;;;6.60;99.90;;;;;;4998124;28;20092;-71
2021/11/23 10:34:16;;;;;;;19.40;11.93;;;6.70;99.90;;;;;;4998906;28;20038;-71
2021/11/23 10:36:45;;;;;;;19.67;12.05;;;6.70;99.90;;;;;;4998893;28;20041;-71
2021/11/23 10:39:20;;;;;;;19.40;11.23;;;6.80;99.90;;;;;;4998473;28;20035;-71
2021/11/23 10:41:53;;;;;;;15.10;10.80;;;6.90;99.90;;;;;;4998989;28;20085;-71
2021/11/23 10:44:27;;;;;;;15.02;10.63;;;7.10;99.90;;;;;;4998339;28;20046;-71
2021/11/23 10:47:15;;;;;;;20.20;11.43;;;7.40;99.90;;;;;;4998934;28;20069;-71
2021/11/23 10:49:46;;;;;;;21.85;11.77;;;7.90;85.50;;;;;;4998119;28;20073;-71
2021/11/23 10:52:36;;;;;;;14.43;10.77;;;8.30;86.70;;;;;;4997996;28;20046;-71
2021/11/23 10:55:08;;;;;;;15.98;10.52;;;8.30;66.80;;;;;;4997913;28;20042;-71
2021/11/23 10:57:40;;;;;;;15.90;9.95;;;8.30;61.90;;;;;;4998301;28;20049;-71
2021/11/23 11:00:08;;;;;;;13.77;9.45;;;8.30;60.80;;;;;;4997795;28;20129;-71
2021/11/23 11:02:36;;;;;;;17.48;9.63;;;8.30;64.90;;;;;;4998051;28;20050;-71
2021/11/23 11:05:02;;;;;;;14.88;10.32;;;8.20;76.90;;;;;;4997667;28;20042;-71
2021/11/23 11:07:29;;;;;;;15.95;9.30;;;7.90;90.80;;;;;;4996883;28;20046;-71
2021/11/23 11:09:57;;;;;;;14.90;9.80;;;8.10;99.90;;;;;;4997986;28;20386;-71
2021/11/23 11:12:24;;;;;;;13.02;8.57;;;8.30;98.90;;;;;;4998105;28;20042;-71
2021/11/23 11:14:54;;;;;;;11.98;7.82;;;8.50;77.00;;;;;;4997846;28;20088;-71
2021/11/23 11:17:24;;;;;;;11.77;7.88;;;8.60;60.00;;;;;;4997641;28;20097;-71
2021/11/23 11:19:52;;;;;;;12.57;8.13;;;8.60;78.80;;;;;;4998061;28;20031;-71
2021/11/23 11:22:23;;;;;;;13.15;8.73;;;8.80;60.30;;;;;;4997655;28;20108;-71
2021/11/23 11:27:38;;;;;;;15.48;8.68;;;8.90;70.90;;;;;;4997125;28;20038;-71
2021/11/23 11:30:31;;;;;;;16.88;9.57;;;8.80;63.60;;;;;;4996692;28;20137;-71
2021/11/23 11:33:06;;;;;;;15.85;9.32;;;8.80;69.50;;;;;;4997324;28;20048;-71
2021/11/23 11:35:39;;;;;;;15.30;9.18;;;8.70;89.80;;;;;;4997227;28;20034;-71
2021/11/23 11:38:27;;;;;;;11.88;8.98;;;8.80;75.80;;;;;;4996881;28;20043;-71
2021/11/23 11:41:06;;;;;;;13.00;8.15;;;9.00;89.00;;;;;;4996776;28;20041;-71
2021/11/23 11:43:35;;;;;;;13.70;9.00;;;9.30;54.90;;;;;;4997724;28;20161;-71
2021/11/23 11:46:03;;;;;;;12.02;8.13;;;9.30;67.40;;;;;;4996906;28;20030;-71
2021/11/23 11:51:00;;;;;;;15.07;9.40;;;9.70;32.20;;;;;;4996571;28;20031;-71
2021/11/23 11:53:30;;;;;;;13.43;9.75;;;9.80;29.40;;;;;;4997599;28;20046;-71
2021/11/23 11:55:57;;;;;;;14.60;9.43;;;9.90;34.20;;;;;;4996583;28;20113;-71
2021/11/23 11:58:58;;;;;;;22.95;12.70;;;10.10;21.30;;;;;;4997392;28;20045;-71
2021/11/23 12:01:35;;;;;;;13.32;9.38;;;10.10;27.20;;;;;;4994702;28;20042;-72
2021/11/23 12:04:12;;;;;;;14.85;10.73;;;10.20;18.80;;;;;;4995638;28;20509;-73
2021/11/23 12:06:53;;;;;;;20.05;12.68;;;10.00;29.50;;;;;;4995384;28;20084;-72
2021/11/23 12:09:38;;;;;;;13.63;9.70;;;9.60;64.20;;;;;;4995765;28;20038;-71
2021/11/23 12:12:09;;;;;;;19.15;10.23;;;9.40;74.60;;;;;;4993890;28;20049;-72
2021/11/23 12:14:37;;;;;;;13.40;9.88;;;9.50;93.30;;;;;;4995725;28;20040;-72
2021/11/23 12:17:17;;;;;;;16.55;9.23;;;9.70;60.90;;;;;;4994815;28;20611;-72
2021/11/23 12:19:52;;;;;;;46.90;19.50;;;9.80;69.90;;;;;;4995101;28;20038;-73
2021/11/23 12:22:26;;;;;;;30.60;12.85;;;9.90;47.70;;;;;;4995796;28;20058;-72
2021/11/23 12:24:53;;;;;;;15.35;8.30;;;9.80;49.80;;;;;;4995219;28;20055;-72
2021/11/23 12:27:19;;;;;;;13.18;7.93;;;9.60;41.50;;;;;;4992153;28;20404;-72
2021/11/23 12:29:48;;;;;;;16.25;8.85;;;9.50;26.60;;;;;;4993807;28;20505;-72
2021/11/23 12:32:16;;;;;;;20.67;11.25;;;9.40;63.00;;;;;;4995296;28;20125;-72
2021/11/23 12:34:50;;;;;;;167.32;59.30;;;9.50;68.20;;;;;;4996243;28;20041;-72
2021/11/23 12:37:16;;;;;;;68.50;26.42;;;9.40;52.40;;;;;;4995668;28;20460;-72
2021/11/23 12:39:42;;;;;;;70.05;28.08;;;9.40;77.60;;;;;;4995593;28;20121;-72
2021/11/23 12:42:14;;;;;;;35.80;17.67;;;9.30;71.20;;;;;;4995593;28;20508;-72
2021/11/23 12:44:42;;;;;;;167.80;76.28;;;9.40;76.20;;;;;;4995354;28;20097;-72
2021/11/23 12:47:21;;;;;;;65.60;32.85;;;9.40;85.80;;;;;;4995521;28;20069;-71
2021/11/23 12:50:01;;;;;;;150.52;72.60;;;9.30;80.20;;;;;;4994479;28;20030;-71